createdAt,value
2023-04-11T00:02:27.778Z,102244.97
2023-04-11T00:04:59.191Z,102239.03
2023-04-11T00:07:31.972Z,102242.00
2023-04-11T00:10:02.634Z,102233.91
2023-04-11T00:12:39.827Z,102235.59
2023-04-11T00:15:16.065Z,102233.59
2023-04-11T00:17:51.346Z,102225.59
2023-04-11T00:20:20.607Z,102228.25
2023-04-11T00:22:54.895Z,102221.41
2023-04-11T00:25:30.360Z,102222.22
2023-04-11T00:28:06.113Z,102218.81
2023-04-11T00:30:42.743Z,102213.50
2023-04-11T00:33:15.893Z,102204.41
2023-04-11T00:35:58.138Z,102209.19
2023-04-11T00:38:28.918Z,102213.47
2023-04-11T00:40:56.421Z,102214.44
2023-04-11T00:43:37.509Z,102211.34
2023-04-11T00:46:09.588Z,102210.69
2023-04-11T00:48:41.851Z,102211.31
2023-04-11T00:51:09.360Z,102212.16
2023-04-11T00:53:43.513Z,102214.81
2023-04-11T00:56:13.225Z,102207.81
2023-04-11T00:58:46.336Z,102198.28
2023-04-11T01:01:16.928Z,102197.78
2023-04-11T01:03:48.548Z,102188.06
2023-04-11T01:06:23.189Z,102182.84
2023-04-11T01:08:50.889Z,102179.28
2023-04-11T01:11:21.971Z,102173.66
2023-04-11T01:13:50.921Z,102166.50
2023-04-11T01:16:21.948Z,102159.63
2023-04-11T01:18:52.382Z,102156.25
2023-04-11T01:21:24.716Z,102161.63
2023-04-11T01:23:54.981Z,102159.09
2023-04-11T01:26:26.038Z,102161.59
2023-04-11T01:28:54.619Z,102163.41
2023-04-11T01:31:25.736Z,102166.69
2023-04-11T01:33:54.593Z,102162.41
2023-04-11T01:36:29.107Z,102162.38
2023-04-11T01:38:56.819Z,102151.00
2023-04-11T01:41:34.273Z,102152.00
2023-04-11T01:44:05.577Z,102149.25
2023-04-11T01:46:33.419Z,102146.34
2023-04-11T01:49:06.791Z,102150.94
2023-04-11T01:51:44.482Z,102149.41
2023-04-11T01:54:20.734Z,102161.47
2023-04-11T01:57:04.540Z,102162.47
2023-04-11T01:59:40.168Z,102150.03
2023-04-11T02:02:15.923Z,102148.91
2023-04-11T02:04:51.872Z,102145.09
2023-04-11T02:07:23.833Z,102142.34
2023-04-11T02:09:54.020Z,102139.78
2023-04-11T02:12:24.518Z,102140.50
2023-04-11T02:14:53.461Z,102143.97
2023-04-11T02:17:26.833Z,102143.06
2023-04-11T02:19:57.122Z,102148.22
2023-04-11T02:22:25.233Z,102153.34
2023-04-11T02:25:10.825Z,102153.28
2023-04-11T02:27:38.174Z,102155.19
2023-04-11T02:30:14.175Z,102168.28
2023-04-11T02:32:47.201Z,102172.22
2023-04-11T02:35:18.190Z,102156.69
2023-04-11T02:37:50.072Z,102148.66
2023-04-11T02:40:25.569Z,102155.06
2023-04-11T02:43:08.810Z,102165.34
2023-04-11T02:45:42.017Z,102167.94
2023-04-11T02:48:14.807Z,102178.47
2023-04-11T02:50:47.531Z,102181.09
2023-04-11T02:53:27.333Z,102174.78
2023-04-11T02:56:01.521Z,102174.69
2023-04-11T02:58:33.600Z,102162.44
2023-04-11T03:01:11.236Z,102172.41
2023-04-11T03:03:41.384Z,102182.22
2023-04-11T03:06:27.600Z,102175.31
2023-04-11T03:09:04.301Z,102175.47
2023-04-11T03:11:35.566Z,102164.47
2023-04-11T03:14:09.045Z,102169.06
2023-04-11T03:16:36.390Z,102169.31
2023-04-11T03:19:04.826Z,102172.97
2023-04-11T03:21:37.304Z,102169.19
2023-04-11T03:24:05.649Z,102155.44
2023-04-11T03:26:40.248Z,102151.13
2023-04-11T03:29:16.860Z,102158.13
2023-04-11T03:32:02.942Z,102151.13
2023-04-11T03:34:39.620Z,102140.50
2023-04-11T03:37:18.832Z,102134.22
2023-04-11T03:39:49.470Z,102124.66
2023-04-11T03:42:22.358Z,102129.22
2023-04-11T03:44:58.844Z,102117.38
2023-04-11T03:47:32.056Z,102118.09
2023-04-11T03:50:11.542Z,102107.28
2023-04-11T03:52:53.610Z,102108.00
2023-04-11T03:55:23.163Z,102109.22
2023-04-11T03:57:54.222Z,102103.97
2023-04-11T04:00:32.404Z,102100.44
2023-04-11T04:03:08.948Z,102097.06
2023-04-11T04:05:41.392Z,102095.38
2023-04-11T04:08:13.647Z,102104.06
2023-04-11T04:10:52.877Z,102104.53
2023-04-11T04:13:20.256Z,102107.91
2023-04-11T04:16:02.605Z,102124.28
2023-04-11T04:18:36.352Z,102123.59
2023-04-11T04:21:07.402Z,102120.31
2023-04-11T04:23:49.762Z,102122.97
2023-04-11T04:26:30.260Z,102118.34
2023-04-11T04:29:18.575Z,102116.16
2023-04-11T04:31:58.256Z,102117.22
2023-04-11T04:35:05.499Z,102116.22
2023-04-11T04:37:39.777Z,102128.41
2023-04-11T04:40:42.388Z,102139.28
2023-04-11T04:43:24.464Z,102144.31
2023-04-11T04:46:14.633Z,102134.75
2023-04-11T04:48:53.383Z,102130.03
2023-04-11T04:51:22.766Z,102130.56
2023-04-11T04:54:19.780Z,102136.09
2023-04-11T04:56:51.474Z,102142.75
2023-04-11T04:59:26.931Z,102132.69
2023-04-11T05:02:04.513Z,102131.72
2023-04-11T05:04:34.395Z,102126.97
2023-04-11T05:07:03.328Z,102132.47
2023-04-11T05:09:32.049Z,102131.72
2023-04-11T05:12:28.366Z,102131.41
2023-04-11T05:15:04.877Z,102129.97
2023-04-11T05:17:35.635Z,102128.47
2023-04-11T05:20:07.195Z,102129.63
2023-04-11T05:22:34.884Z,102127.78
2023-04-11T05:25:07.905Z,102138.31
2023-04-11T05:27:41.508Z,102136.69
2023-04-11T05:30:12.781Z,102141.94
2023-04-11T05:32:48.823Z,102130.47
2023-04-11T05:35:24.317Z,102130.47
2023-04-11T05:37:58.415Z,102135.41
2023-04-11T05:40:40.045Z,102140.81
2023-04-11T05:43:19.651Z,102141.06
2023-04-11T05:45:55.716Z,102139.41
2023-04-11T05:48:26.354Z,102145.94
2023-04-11T05:51:03.828Z,102143.84
2023-04-11T05:53:34.547Z,102159.66
2023-04-11T05:56:05.108Z,102157.75
2023-04-11T05:58:47.609Z,102164.41
2023-04-11T06:01:20.128Z,102170.16
2023-04-11T06:03:51.388Z,102163.88
2023-04-11T06:06:24.019Z,102158.44
2023-04-11T06:08:59.758Z,102165.94
2023-04-11T06:11:35.710Z,102168.88
2023-04-11T06:14:11.281Z,102175.53
2023-04-11T06:16:51.526Z,102172.09
2023-04-11T06:19:23.387Z,102178.19
2023-04-11T06:21:53.641Z,102180.94
2023-04-11T06:24:37.748Z,102186.13
2023-04-11T06:27:07.148Z,102191.13
2023-04-11T06:29:43.727Z,102184.41
2023-04-11T06:32:25.997Z,102179.22
2023-04-11T06:35:15.105Z,102186.38
2023-04-11T06:37:52.906Z,102191.94
2023-04-11T06:40:47.328Z,102201.09
2023-04-11T06:43:18.132Z,102201.59
2023-04-11T06:45:52.796Z,102189.09
2023-04-11T06:48:28.298Z,102187.38
2023-04-11T06:51:09.194Z,102187.47
2023-04-11T06:53:39.705Z,102184.81
2023-04-11T06:56:21.192Z,102187.53
2023-04-11T06:58:57.802Z,102190.13
2023-04-11T07:01:50.209Z,102190.25
2023-04-11T07:04:27.347Z,102181.69
2023-04-11T07:07:00.265Z,102174.44
2023-04-11T07:09:38.608Z,102179.72
2023-04-11T07:12:11.633Z,102174.53
2023-04-11T07:14:48.047Z,102175.75
2023-04-11T07:17:29.047Z,102174.88
2023-04-11T07:20:11.778Z,102181.25
2023-04-11T07:22:43.531Z,102186.38
2023-04-11T07:25:24.803Z,102185.47
2023-04-11T07:28:13.285Z,102174.56
2023-04-11T07:30:49.699Z,102176.63
2023-04-11T07:33:31.890Z,102173.06
2023-04-11T07:36:08.911Z,102177.59
2023-04-11T07:38:50.608Z,102164.22
2023-04-11T07:41:27.582Z,102171.31
2023-04-11T07:44:09.786Z,102162.66
2023-04-11T07:46:47.204Z,102161.72
2023-04-11T07:49:24.055Z,102153.44
2023-04-11T07:51:59.478Z,102158.00
2023-04-11T07:54:43.484Z,102152.69
2023-04-11T07:57:15.044Z,102146.78
2023-04-11T08:00:00.612Z,102161.25
2023-04-11T08:02:36.298Z,102159.06
2023-04-11T08:05:18.267Z,102147.50
2023-04-11T08:08:02.942Z,102148.06
2023-04-11T08:10:43.471Z,102146.72
2023-04-11T08:13:25.165Z,102149.75
2023-04-11T08:16:06.879Z,102157.69
2023-04-11T08:18:45.371Z,102155.94
2023-04-11T08:21:22.304Z,102148.69
2023-04-11T08:23:55.888Z,102141.50
2023-04-11T08:26:34.288Z,102148.13
2023-04-11T08:29:13.059Z,102147.69
2023-04-11T08:31:51.879Z,102148.09
2023-04-11T08:34:19.421Z,102144.00
2023-04-11T08:36:55.631Z,102151.84
2023-04-11T08:39:38.401Z,102143.31
2023-04-11T08:42:18.430Z,102139.47
2023-04-11T08:45:04.067Z,102146.06
2023-04-11T08:47:37.815Z,102139.25
2023-04-11T08:50:20.557Z,102136.41
2023-04-11T08:52:53.274Z,102131.47
2023-04-11T08:55:36.395Z,102136.25
2023-04-11T08:58:20.745Z,102132.75
2023-04-11T09:00:52.665Z,102129.50
2023-04-11T09:03:23.382Z,102133.41
2023-04-11T09:05:54.970Z,102122.84
2023-04-11T09:08:40.537Z,102121.81
2023-04-11T09:11:28.647Z,102113.66
2023-04-11T09:14:14.767Z,102109.59
2023-04-11T09:17:17.582Z,102108.34
2023-04-11T09:22:49.972Z,102106.34
2023-04-11T09:25:45.268Z,102104.50
2023-04-11T09:28:15.000Z,102096.91
2023-04-11T09:30:55.226Z,102102.06
2023-04-11T09:33:33.093Z,102094.38
2023-04-11T09:36:25.121Z,102102.03
2023-04-11T09:38:58.985Z,102098.28
2023-04-11T09:44:43.495Z,102096.41
2023-04-11T09:47:37.670Z,102089.97
2023-04-11T09:50:35.814Z,102082.66
2023-04-11T09:53:18.365Z,102080.75
2023-04-11T09:56:11.304Z,102078.66
2023-04-11T09:58:50.406Z,102079.78
2023-04-11T10:01:21.262Z,102080.88
2023-04-11T10:04:16.097Z,102081.59
2023-04-11T10:07:11.846Z,102074.16
2023-04-11T10:09:55.980Z,102064.44
2023-04-11T10:12:48.788Z,102065.22
2023-04-11T10:15:40.094Z,102059.31
2023-04-11T10:18:24.337Z,102065.19
2023-04-11T10:21:05.582Z,102073.31
2023-04-11T10:24:10.294Z,102071.44
2023-04-11T10:27:10.518Z,102071.75
2023-04-11T10:29:55.630Z,102066.28
2023-04-11T10:32:36.781Z,102064.72
2023-04-11T10:35:31.054Z,102066.53
2023-04-11T10:38:38.500Z,102057.97
2023-04-11T10:41:28.711Z,102048.38
2023-04-11T10:44:25.046Z,102060.28
2023-04-11T10:47:19.230Z,102068.09
2023-04-11T10:50:30.321Z,102048.63
2023-04-11T10:53:40.701Z,102052.13
2023-04-11T10:59:37.657Z,102035.44
2023-04-11T11:02:29.732Z,102037.22
2023-04-11T11:05:18.446Z,102034.47
2023-04-11T11:08:13.822Z,102027.34
2023-04-11T11:11:05.793Z,102039.69
2023-04-11T11:14:03.198Z,102033.91
2023-04-11T11:16:47.220Z,102028.53
2023-04-11T11:19:32.910Z,102016.25
2023-04-11T11:22:04.336Z,102019.13
2023-04-11T11:24:45.297Z,102005.25
2023-04-11T11:27:27.908Z,102011.25
2023-04-11T11:30:23.419Z,101998.28
2023-04-11T11:33:04.225Z,102000.91
2023-04-11T11:35:59.408Z,101992.09
2023-04-11T11:38:33.258Z,101980.56
2023-04-11T11:41:11.142Z,101979.88
2023-04-11T11:43:57.635Z,101972.84
2023-04-11T11:47:02.206Z,101967.47
2023-04-11T11:50:14.279Z,101955.97
2023-04-11T11:55:38.543Z,101939.31
2023-04-11T11:58:06.432Z,101942.06
2023-04-11T12:00:42.148Z,101933.22
2023-04-11T12:03:25.634Z,101929.72
2023-04-11T12:06:11.040Z,101917.44
2023-04-11T12:11:54.148Z,101947.97
2023-04-11T12:14:32.235Z,101929.59
2023-04-11T12:17:04.163Z,101926.28
2023-04-11T12:19:42.421Z,101915.69
2023-04-11T12:22:20.964Z,101921.06
2023-04-11T12:25:19.598Z,101901.63
2023-04-11T12:28:03.533Z,101900.91
2023-04-11T12:30:31.100Z,101904.38
2023-04-11T12:33:26.620Z,101908.81
2023-04-11T12:36:10.777Z,101899.09
2023-04-11T12:38:47.240Z,101891.22
2023-04-11T12:41:32.245Z,101885.06
2023-04-11T12:44:07.460Z,101892.09
2023-04-11T12:46:40.897Z,101883.19
2023-04-11T12:49:17.817Z,101884.16
2023-04-11T12:51:57.476Z,101875.41
2023-04-11T12:54:51.441Z,101872.72
2023-04-11T12:57:28.510Z,101867.44
2023-04-11T13:02:52.631Z,101856.03
2023-04-11T13:05:33.731Z,101852.53
2023-04-11T13:08:18.754Z,101838.41
2023-04-11T13:11:03.439Z,101844.59
2023-04-11T13:13:42.421Z,101841.94
2023-04-11T13:16:10.169Z,101841.94
2023-04-11T13:18:49.547Z,101834.00
2023-04-11T13:21:27.444Z,101830.50
2023-04-11T13:24:10.991Z,101829.47
2023-04-11T13:29:50.843Z,101825.19
2023-04-11T13:32:20.523Z,101824.34
2023-04-11T13:34:48.146Z,101828.72
2023-04-11T13:37:17.520Z,101825.09
2023-04-11T13:39:45.075Z,101838.41
2023-04-11T13:42:15.094Z,101826.09
2023-04-11T13:44:49.656Z,101803.22
2023-04-11T13:47:17.332Z,101814.69
2023-04-11T13:49:49.012Z,101806.59
2023-04-11T13:52:24.870Z,101822.22
2023-04-11T13:54:52.249Z,101800.34
2023-04-11T13:57:25.472Z,101790.81
2023-04-11T13:59:58.240Z,101782.13
2023-04-11T14:02:40.992Z,101793.53
2023-04-11T14:05:21.418Z,101774.97
2023-04-11T14:08:06.061Z,101768.06
2023-04-11T14:10:39.715Z,101773.16
2023-04-11T14:13:12.341Z,101762.75
2023-04-11T14:18:30.539Z,101746.88
2023-04-11T14:21:28.760Z,101745.97
2023-04-11T14:24:13.305Z,101742.50
2023-04-11T14:26:53.721Z,101748.66
2023-04-11T14:29:29.007Z,101735.38
2023-04-11T14:32:13.679Z,101726.69
2023-04-11T14:34:43.439Z,101734.56
2023-04-11T14:37:18.055Z,101723.22
2023-04-11T14:39:50.983Z,101725.50
2023-04-11T14:42:26.956Z,101726.34
2023-04-11T14:44:59.284Z,101729.25
2023-04-11T14:47:32.190Z,101710.69
2023-04-11T14:50:04.297Z,101696.78
2023-04-11T14:52:34.337Z,101709.72
2023-04-11T14:55:06.809Z,101693.06
2023-04-11T14:57:57.755Z,101686.88
2023-04-11T15:00:28.407Z,101680.88
2023-04-11T15:02:57.666Z,101676.44
2023-04-11T15:05:30.538Z,101695.69
2023-04-11T15:08:06.402Z,101673.81
2023-04-11T15:10:54.666Z,101663.25
2023-04-11T15:16:31.621Z,101647.06
2023-04-11T15:19:18.032Z,101672.28
2023-04-11T15:21:53.909Z,101652.09
2023-04-11T15:24:24.480Z,101652.31
2023-04-11T15:27:00.435Z,101664.97
2023-04-11T15:29:38.894Z,101647.00
2023-04-11T15:32:11.744Z,101648.63
2023-04-11T15:34:49.633Z,101644.03
2023-04-11T15:37:29.978Z,101654.25
2023-04-11T15:40:06.386Z,101625.94
2023-04-11T15:42:37.922Z,101640.00
2023-04-11T15:45:08.884Z,101624.72
2023-04-11T15:47:41.452Z,101631.16
2023-04-11T15:50:14.741Z,101639.22
2023-04-11T15:52:45.079Z,101611.03
2023-04-11T15:55:20.790Z,101607.94
2023-04-11T15:57:56.401Z,101604.91
2023-04-11T16:00:32.604Z,101613.53
2023-04-11T16:03:06.112Z,101607.44
2023-04-11T16:05:47.527Z,101598.88
2023-04-11T16:08:41.953Z,101602.00
2023-04-11T16:11:54.086Z,101592.00
2023-04-11T16:17:55.536Z,101593.50
2023-04-11T16:20:46.234Z,101606.34
2023-04-11T16:23:26.393Z,101593.25
2023-04-11T16:26:08.399Z,101605.47
2023-04-11T16:28:56.012Z,101579.09
2023-04-11T16:31:38.980Z,101574.00
2023-04-11T16:34:30.219Z,101579.38
2023-04-11T16:37:34.978Z,101565.53
2023-04-11T16:40:17.587Z,101565.50
2023-04-11T16:42:52.542Z,101568.97
2023-04-11T16:48:40.787Z,101562.50
2023-04-11T16:51:33.279Z,101554.88
2023-04-11T16:54:12.016Z,101549.50
2023-04-11T16:56:48.940Z,101559.13
2023-04-11T16:59:49.265Z,101563.50
2023-04-11T17:02:37.448Z,101546.00
2023-04-11T17:05:21.133Z,101535.66
2023-04-11T17:07:49.732Z,101532.22
2023-04-11T17:10:41.984Z,101532.72
2023-04-11T17:13:30.210Z,101537.25
2023-04-11T17:16:06.685Z,101542.16
2023-04-11T17:18:55.044Z,101525.44
2023-04-11T17:21:40.310Z,101526.91
2023-04-11T17:24:25.706Z,101521.56
2023-04-11T17:27:22.457Z,101519.78
2023-04-11T17:30:19.966Z,101512.03
2023-04-11T17:33:29.134Z,101514.44
2023-04-11T17:36:22.668Z,101506.72
2023-04-11T17:39:10.921Z,101509.25
2023-04-11T17:42:03.206Z,101497.84
2023-04-11T17:44:49.763Z,101498.75
2023-04-11T17:47:23.755Z,101491.81
2023-04-11T17:50:12.723Z,101502.09
2023-04-11T17:52:42.995Z,101496.97
2023-04-11T17:55:12.024Z,101498.56
2023-04-11T17:57:50.440Z,101496.97
2023-04-11T18:00:26.041Z,101500.44
2023-04-11T18:03:12.163Z,101502.25
2023-04-11T18:05:53.520Z,101502.03
2023-04-11T18:08:46.854Z,101497.63
2023-04-11T18:11:38.893Z,101504.56
2023-04-11T18:17:17.028Z,101503.34
2023-04-11T18:20:07.760Z,101492.16
2023-04-11T18:25:41.482Z,101482.78
2023-04-11T18:28:37.876Z,101479.63
2023-04-11T18:31:38.650Z,101483.91
2023-04-11T18:34:32.998Z,101480.47
2023-04-11T18:37:19.564Z,101474.44
2023-04-11T18:40:20.509Z,101505.09
2023-04-11T18:42:58.487Z,101486.75
2023-04-11T18:45:54.838Z,101504.50
2023-04-11T18:48:47.627Z,101496.66
2023-04-11T18:51:57.297Z,101491.00
2023-04-11T18:57:47.636Z,101496.44
2023-04-11T19:00:35.383Z,101487.03
2023-04-11T19:03:19.146Z,101489.53
2023-04-11T19:05:59.116Z,101493.75
2023-04-11T19:08:51.065Z,101499.78
2023-04-11T19:11:42.498Z,101497.38
2023-04-11T19:14:15.977Z,101499.72
2023-04-11T19:17:23.701Z,101501.66
2023-04-11T19:19:54.752Z,101505.38
2023-04-11T19:25:15.181Z,101502.09
2023-04-11T19:30:45.215Z,101509.75
2023-04-11T19:33:22.721Z,101505.16
2023-04-11T19:36:04.793Z,101503.38
2023-04-11T19:38:42.349Z,101503.63
2023-04-11T19:44:19.183Z,101511.41
2023-04-11T19:47:03.070Z,101514.47
2023-04-11T19:49:53.809Z,101522.38
2023-04-11T19:52:30.128Z,101512.97
2023-04-11T19:55:14.252Z,101515.72
2023-04-11T19:57:44.050Z,101523.34
2023-04-11T20:00:22.552Z,101516.66
2023-04-11T20:03:06.032Z,101511.53
2023-04-11T20:05:56.405Z,101518.41
2023-04-11T20:08:32.738Z,101514.22
2023-04-11T20:11:42.899Z,101517.59
2023-04-11T20:14:13.164Z,101514.66
2023-04-11T20:16:49.442Z,101503.66
2023-04-11T20:19:29.927Z,101502.09
2023-04-11T20:22:05.511Z,101505.50
2023-04-11T20:24:40.315Z,101502.09
2023-04-11T20:27:13.134Z,101508.47
2023-04-11T20:29:51.951Z,101512.88
2023-04-11T20:32:34.084Z,101517.38
2023-04-11T20:35:14.683Z,101517.44
2023-04-11T20:37:53.040Z,101516.56
2023-04-11T20:40:23.804Z,101509.56
2023-04-11T20:42:58.761Z,101511.00
2023-04-11T20:45:33.115Z,101509.44
2023-04-11T20:48:04.550Z,101517.38
2023-04-11T20:50:38.295Z,101518.25
2023-04-11T20:53:13.786Z,101522.69
2023-04-11T20:55:51.839Z,101513.09
2023-04-11T20:58:29.171Z,101499.06
2023-04-11T21:00:57.519Z,101514.03
2023-04-11T21:03:36.732Z,101513.19
2023-04-11T21:06:07.765Z,101513.16
2023-04-11T21:08:37.930Z,101513.22
2023-04-11T21:11:05.997Z,101506.22
2023-04-11T21:13:33.312Z,101511.38
2023-04-11T21:16:01.241Z,101514.91
2023-04-11T21:18:29.134Z,101512.31
2023-04-11T21:20:56.790Z,101507.03
2023-04-11T21:23:30.292Z,101511.47
2023-04-11T21:26:00.695Z,101507.13
2023-04-11T21:28:29.524Z,101504.47
2023-04-11T21:31:01.588Z,101494.81
2023-04-11T21:33:32.243Z,101495.72
2023-04-11T21:36:07.554Z,101498.28
2023-04-11T21:38:38.207Z,101497.41
2023-04-11T21:41:10.968Z,101503.53
2023-04-11T21:43:38.557Z,101495.56
2023-04-11T21:46:05.877Z,101484.25
2023-04-11T21:48:33.238Z,101477.19
2023-04-11T21:51:02.058Z,101486.88
2023-04-11T21:53:29.319Z,101487.75
2023-04-11T21:55:59.361Z,101482.50
2023-04-11T21:58:30.644Z,101473.75
2023-04-11T22:01:02.724Z,101486.88
2023-04-11T22:03:31.387Z,101475.41
2023-04-11T22:05:59.225Z,101477.16
2023-04-11T22:08:29.580Z,101472.78
2023-04-11T22:11:01.885Z,101471.06
2023-04-11T22:13:34.952Z,101474.56
2023-04-11T22:16:05.876Z,101480.59
2023-04-11T22:18:48.651Z,101476.16
2023-04-11T22:21:21.474Z,101469.13
2023-04-11T22:23:57.095Z,101477.88
2023-04-11T22:26:33.273Z,101477.88
2023-04-11T22:29:14.863Z,101471.75
2023-04-11T22:31:45.467Z,101477.88
2023-04-11T22:34:16.735Z,101474.34
2023-04-11T22:36:44.295Z,101477.00
2023-04-11T22:39:11.948Z,101477.00
2023-04-11T22:41:39.438Z,101465.53
2023-04-11T22:44:07.153Z,101473.47
2023-04-11T22:46:44.455Z,101465.50
2023-04-11T22:49:21.355Z,101469.88
2023-04-11T22:51:48.663Z,101468.16
2023-04-11T22:54:15.888Z,101459.41
2023-04-11T22:56:43.365Z,101463.75
2023-04-11T22:59:11.101Z,101454.13
2023-04-11T23:01:38.378Z,101455.03
2023-04-11T23:04:05.672Z,101450.59
2023-04-11T23:06:33.021Z,101447.91
2023-04-11T23:09:00.201Z,101448.78
2023-04-11T23:11:27.363Z,101453.03
2023-04-11T23:14:01.202Z,101447.88
2023-04-11T23:16:28.578Z,101447.91
2023-04-11T23:18:55.767Z,101451.38
2023-04-11T23:21:23.064Z,101440.81
2023-04-11T23:23:50.379Z,101434.69
2023-04-11T23:26:25.312Z,101438.19
2023-04-11T23:29:02.194Z,101440.78
2023-04-11T23:31:30.349Z,101437.31
2023-04-11T23:33:57.785Z,101433.81
2023-04-11T23:36:28.202Z,101434.66
2023-04-11T23:38:58.616Z,101429.41
2023-04-11T23:41:25.972Z,101425.03
2023-04-11T23:43:53.216Z,101424.19
2023-04-11T23:46:20.730Z,101423.28
2023-04-11T23:48:47.961Z,101420.59
2023-04-11T23:51:16.418Z,101417.06
2023-04-11T23:53:47.012Z,101409.19
2023-04-11T23:56:14.508Z,101407.44
2023-04-11T23:58:41.877Z,101403.94
